sensor_id;sensor_type;location;lat;lon;timestamp;P1;durP1;ratioP1;P2;durP2;ratioP2
52015;SDS011;38032;53.326;6.472;2023-01-01T17:41:37;13.30;;;4.78;;
52015;SDS011;38032;53.326;6.472;2023-01-01T17:44:04;11.80;;;5.15;;
52015;SDS011;38032;53.326;6.472;2023-01-01T17:46:30;11.93;;;4.72;;
52015;SDS011;38032;53.326;6.472;2023-01-01T17:48:57;16.00;;;5.35;;
52015;SDS011;38032;53.326;6.472;2023-01-01T17:51:24;12.32;;;5.22;;
52015;SDS011;38032;53.326;6.472;2023-01-01T17:53:50;11.90;;;3.85;;
52015;SDS011;38032;53.326;6.472;2023-01-01T17:56:18;14.48;;;4.63;;
52015;SDS011;38032;53.326;6.472;2023-01-01T17:58:45;10.43;;;3.78;;
52015;SDS011;38032;53.326;6.472;2023-01-01T18:03:51;14.35;;;4.47;;
52015;SDS011;38032;53.326;6.472;2023-01-01T18:06:19;12.45;;;4.78;;
52015;SDS011;38032;53.326;6.472;2023-01-01T18:08:46;15.77;;;4.45;;
52015;SDS011;38032;53.326;6.472;2023-01-01T18:11:12;10.60;;;4.35;;
52015;SDS011;38032;53.326;6.472;2023-01-01T18:13:38;9.30;;;4.15;;
52015;SDS011;38032;53.326;6.472;2023-01-01T18:16:06;16.83;;;4.63;;
52015;SDS011;38032;53.326;6.472;2023-01-01T18:18:36;16.92;;;4.32;;
52015;SDS011;38032;53.326;6.472;2023-01-01T18:21:05;14.35;;;4.90;;
52015;SDS011;38032;53.326;6.472;2023-01-01T18:23:36;18.00;;;4.70;;
52015;SDS011;38032;53.326;6.472;2023-01-01T18:26:03;11.60;;;4.50;;
52015;SDS011;38032;53.326;6.472;2023-01-01T18:28:31;15.55;;;4.82;;
52015;SDS011;38032;53.326;6.472;2023-01-01T18:31:05;14.63;;;4.60;;
52015;SDS011;38032;53.326;6.472;2023-01-01T18:33:34;13.52;;;4.30;;
52015;SDS011;38032;53.326;6.472;2023-01-01T18:36:02;14.52;;;4.57;;
52015;SDS011;38032;53.326;6.472;2023-01-01T18:38:29;13.73;;;4.43;;
52015;SDS011;38032;53.326;6.472;2023-01-01T18:40:59;14.80;;;4.38;;
52015;SDS011;38032;53.326;6.472;2023-01-01T18:43:46;14.55;;;4.88;;
52015;SDS011;38032;53.326;6.472;2023-01-01T18:46:12;12.65;;;4.18;;
52015;SDS011;38032;53.326;6.472;2023-01-01T18:48:38;16.40;;;4.57;;
52015;SDS011;38032;53.326;6.472;2023-01-01T18:51:12;11.75;;;4.30;;
52015;SDS011;38032;53.326;6.472;2023-01-01T18:53:42;12.75;;;4.30;;
52015;SDS011;38032;53.326;6.472;2023-01-01T18:56:10;13.10;;;3.83;;
52015;SDS011;38032;53.326;6.472;2023-01-01T18:58:39;10.15;;;4.03;;
52015;SDS011;38032;53.326;6.472;2023-01-01T19:01:15;15.25;;;5.50;;
52015;SDS011;38032;53.326;6.472;2023-01-01T19:03:45;16.88;;;5.18;;
52015;SDS011;38032;53.326;6.472;2023-01-01T19:06:19;13.45;;;4.95;;
52015;SDS011;38032;53.326;6.472;2023-01-01T19:08:57;11.23;;;4.93;;
52015;SDS011;38032;53.326;6.472;2023-01-01T19:11:24;13.55;;;4.75;;
52015;SDS011;38032;53.326;6.472;2023-01-01T19:13:50;12.30;;;4.55;;
52015;SDS011;38032;53.326;6.472;2023-01-01T19:16:21;16.52;;;4.88;;
52015;SDS011;38032;53.326;6.472;2023-01-01T19:18:53;22.05;;;5.43;;
52015;SDS011;38032;53.326;6.472;2023-01-01T19:21:25;10.27;;;4.50;;
52015;SDS011;38032;53.326;6.472;2023-01-01T19:23:53;15.25;;;5.30;;
52015;SDS011;38032;53.326;6.472;2023-01-01T19:26:31;16.58;;;5.13;;
52015;SDS011;38032;53.326;6.472;2023-01-01T19:29:15;16.25;;;5.30;;
52015;SDS011;38032;53.326;6.472;2023-01-01T19:31:44;14.38;;;4.65;;
52015;SDS011;38032;53.326;6.472;2023-01-01T19:34:11;13.95;;;5.25;;
52015;SDS011;38032;53.326;6.472;2023-01-01T19:36:37;15.23;;;4.90;;
52015;SDS011;38032;53.326;6.472;2023-01-01T19:39:04;15.30;;;5.53;;
52015;SDS011;38032;53.326;6.472;2023-01-01T19:41:31;13.48;;;4.90;;
52015;SDS011;38032;53.326;6.472;2023-01-01T19:43:57;13.10;;;4.85;;
52015;SDS011;38032;53.326;6.472;2023-01-01T19:46:23;11.18;;;5.13;;
52015;SDS011;38032;53.326;6.472;2023-01-01T19:48:48;13.88;;;4.80;;
52015;SDS011;38032;53.326;6.472;2023-01-01T19:51:15;12.25;;;4.97;;
52015;SDS011;38032;53.326;6.472;2023-01-01T19:53:41;11.02;;;4.97;;
52015;SDS011;38032;53.326;6.472;2023-01-01T19:56:07;10.30;;;4.35;;
52015;SDS011;38032;53.326;6.472;2023-01-01T19:58:33;12.10;;;4.60;;
52015;SDS011;38032;53.326;6.472;2023-01-01T20:00:59;14.70;;;5.03;;
52015;SDS011;38032;53.326;6.472;2023-01-01T20:03:27;14.38;;;4.90;;
52015;SDS011;38032;53.326;6.472;2023-01-01T20:05:54;17.23;;;5.03;;
52015;SDS011;38032;53.326;6.472;2023-01-01T20:08:20;12.02;;;4.60;;
52015;SDS011;38032;53.326;6.472;2023-01-01T20:10:46;13.20;;;4.63;;
52015;SDS011;38032;53.326;6.472;2023-01-01T20:13:12;12.20;;;4.53;;
52015;SDS011;38032;53.326;6.472;2023-01-01T20:15:38;9.30;;;4.30;;
52015;SDS011;38032;53.326;6.472;2023-01-01T20:18:03;13.65;;;5.07;;
52015;SDS011;38032;53.326;6.472;2023-01-01T20:20:29;14.35;;;5.25;;
52015;SDS011;38032;53.326;6.472;2023-01-01T20:22:57;10.95;;;4.78;;
52015;SDS011;38032;53.326;6.472;2023-01-01T20:25:23;11.93;;;4.68;;
52015;SDS011;38032;53.326;6.472;2023-01-01T20:27:49;11.38;;;4.72;;
52015;SDS011;38032;53.326;6.472;2023-01-01T20:30:34;12.18;;;5.05;;
52015;SDS011;38032;53.326;6.472;2023-01-01T20:33:01;8.95;;;4.07;;
52015;SDS011;38032;53.326;6.472;2023-01-01T20:35:27;12.20;;;4.57;;
52015;SDS011;38032;53.326;6.472;2023-01-01T20:38:12;11.98;;;4.53;;
52015;SDS011;38032;53.326;6.472;2023-01-01T20:40:38;8.10;;;4.07;;
52015;SDS011;38032;53.326;6.472;2023-01-01T20:43:04;12.50;;;5.10;;
52015;SDS011;38032;53.326;6.472;2023-01-01T20:45:30;12.55;;;4.93;;
52015;SDS011;38032;53.326;6.472;2023-01-01T20:47:56;11.18;;;4.50;;
52015;SDS011;38032;53.326;6.472;2023-01-01T20:50:23;9.75;;;4.43;;
52015;SDS011;38032;53.326;6.472;2023-01-01T20:52:49;11.60;;;4.93;;
52015;SDS011;38032;53.326;6.472;2023-01-01T20:55:14;11.05;;;4.70;;
52015;SDS011;38032;53.326;6.472;2023-01-01T20:57:40;10.75;;;4.85;;
52015;SDS011;38032;53.326;6.472;2023-01-01T21:00:06;7.63;;;3.97;;
52015;SDS011;38032;53.326;6.472;2023-01-01T21:02:33;10.25;;;4.40;;
52015;SDS011;38032;53.326;6.472;2023-01-01T21:05:00;7.75;;;4.60;;
52015;SDS011;38032;53.326;6.472;2023-01-01T21:07:26;11.93;;;4.88;;
52015;SDS011;38032;53.326;6.472;2023-01-01T21:09:52;8.00;;;3.97;;
52015;SDS011;38032;53.326;6.472;2023-01-01T21:12:18;10.27;;;3.90;;
52015;SDS011;38032;53.326;6.472;2023-01-01T21:14:44;10.43;;;4.88;;
52015;SDS011;38032;53.326;6.472;2023-01-01T21:17:17;8.00;;;3.92;;
52015;SDS011;38032;53.326;6.472;2023-01-01T21:19:47;13.15;;;5.20;;
52015;SDS011;38032;53.326;6.472;2023-01-01T21:22:14;12.88;;;4.15;;
52015;SDS011;38032;53.326;6.472;2023-01-01T21:24:40;10.23;;;4.15;;
52015;SDS011;38032;53.326;6.472;2023-01-01T21:29:32;6.65;;;3.63;;
52015;SDS011;38032;53.326;6.472;2023-01-01T21:34:45;6.90;;;3.78;;
52015;SDS011;38032;53.326;6.472;2023-01-01T21:37:16;9.38;;;3.75;;
52015;SDS011;38032;53.326;6.472;2023-01-01T21:42:53;8.43;;;3.97;;
52015;SDS011;38032;53.326;6.472;2023-01-01T21:45:24;9.27;;;4.05;;
52015;SDS011;38032;53.326;6.472;2023-01-01T21:47:55;7.97;;;3.80;;
52015;SDS011;38032;53.326;6.472;2023-01-01T21:50:34;9.70;;;3.90;;
52015;SDS011;38032;53.326;6.472;2023-01-01T21:53:08;10.20;;;3.35;;
52015;SDS011;38032;53.326;6.472;2023-01-01T21:58:23;13.63;;;4.10;;
52015;SDS011;38032;53.326;6.472;2023-01-01T22:03:57;11.15;;;3.80;;
52015;SDS011;38032;53.326;6.472;2023-01-01T22:06:32;9.05;;;3.38;;
52015;SDS011;38032;53.326;6.472;2023-01-01T22:09:02;8.80;;;3.97;;
52015;SDS011;38032;53.326;6.472;2023-01-01T22:11:43;9.35;;;3.13;;
52015;SDS011;38032;53.326;6.472;2023-01-01T22:14:15;8.63;;;3.22;;
52015;SDS011;38032;53.326;6.472;2023-01-01T22:16:43;8.25;;;3.33;;
52015;SDS011;38032;53.326;6.472;2023-01-01T22:19:14;8.55;;;3.67;;
52015;SDS011;38032;53.326;6.472;2023-01-01T22:21:42;8.27;;;3.33;;
52015;SDS011;38032;53.326;6.472;2023-01-01T22:24:27;9.38;;;3.00;;
52015;SDS011;38032;53.326;6.472;2023-01-01T22:27:01;9.13;;;3.60;;
52015;SDS011;38032;53.326;6.472;2023-01-01T22:29:41;9.40;;;3.38;;
52015;SDS011;38032;53.326;6.472;2023-01-01T22:32:13;7.25;;;3.05;;
52015;SDS011;38032;53.326;6.472;2023-01-01T22:34:54;9.25;;;3.33;;
52015;SDS011;38032;53.326;6.472;2023-01-01T22:37:30;10.05;;;3.40;;
52015;SDS011;38032;53.326;6.472;2023-01-01T22:39:59;7.97;;;3.47;;
52015;SDS011;38032;53.326;6.472;2023-01-01T22:42:25;7.72;;;3.17;;
52015;SDS011;38032;53.326;6.472;2023-01-01T22:45:01;9.98;;;3.60;;
52015;SDS011;38032;53.326;6.472;2023-01-01T22:47:30;9.50;;;4.05;;
52015;SDS011;38032;53.326;6.472;2023-01-01T22:49:58;11.15;;;3.88;;
52015;SDS011;38032;53.326;6.472;2023-01-01T22:52:25;10.45;;;4.13;;
52015;SDS011;38032;53.326;6.472;2023-01-01T22:54:52;9.38;;;3.75;;
52015;SDS011;38032;53.326;6.472;2023-01-01T22:57:18;7.35;;;3.80;;
52015;SDS011;38032;53.326;6.472;2023-01-01T22:59:44;11.20;;;3.83;;
52015;SDS011;38032;53.326;6.472;2023-01-01T23:02:10;8.88;;;3.85;;
52015;SDS011;38032;53.326;6.472;2023-01-01T23:04:35;8.48;;;3.78;;
52015;SDS011;38032;53.326;6.472;2023-01-01T23:07:02;11.02;;;4.10;;
52015;SDS011;38032;53.326;6.472;2023-01-01T23:09:30;9.32;;;4.13;;
52015;SDS011;38032;53.326;6.472;2023-01-01T23:11:57;9.23;;;3.65;;
52015;SDS011;38032;53.326;6.472;2023-01-01T23:14:23;8.85;;;3.78;;
52015;SDS011;38032;53.326;6.472;2023-01-01T23:17:08;11.60;;;4.05;;
52015;SDS011;38032;53.326;6.472;2023-01-01T23:19:34;11.60;;;3.83;;
52015;SDS011;38032;53.326;6.472;2023-01-01T23:21:59;7.38;;;3.60;;
52015;SDS011;38032;53.326;6.472;2023-01-01T23:24:27;11.75;;;3.85;;
52015;SDS011;38032;53.326;6.472;2023-01-01T23:26:54;8.27;;;4.05;;
52015;SDS011;38032;53.326;6.472;2023-01-01T23:29:21;13.70;;;4.18;;
52015;SDS011;38032;53.326;6.472;2023-01-01T23:31:48;11.35;;;4.47;;
52015;SDS011;38032;53.326;6.472;2023-01-01T23:34:15;9.20;;;3.88;;
52015;SDS011;38032;53.326;6.472;2023-01-01T23:36:41;10.60;;;3.85;;
52015;SDS011;38032;53.326;6.472;2023-01-01T23:39:08;10.60;;;3.83;;
52015;SDS011;38032;53.326;6.472;2023-01-01T23:41:34;8.15;;;4.13;;
52015;SDS011;38032;53.326;6.472;2023-01-01T23:44:00;7.88;;;3.65;;
52015;SDS011;38032;53.326;6.472;2023-01-01T23:46:26;12.75;;;4.00;;
52015;SDS011;38032;53.326;6.472;2023-01-01T23:48:52;8.63;;;4.30;;
52015;SDS011;38032;53.326;6.472;2023-01-01T23:51:18;8.43;;;4.45;;
52015;SDS011;38032;53.326;6.472;2023-01-01T23:53:45;11.55;;;4.70;;
52015;SDS011;38032;53.326;6.472;2023-01-01T23:56:10;8.32;;;4.50;;
52015;SDS011;38032;53.326;6.472;2023-01-01T23:58:36;6.10;;;3.90;;
